createdAt,value
2023-03-26T00:00:23.926Z,6.52
2023-03-26T00:03:08.834Z,6.57
2023-03-26T00:05:53.730Z,6.61
2023-03-26T00:08:38.774Z,6.65
2023-03-26T00:11:23.672Z,6.67
2023-03-26T00:14:08.638Z,6.63
2023-03-26T00:16:53.727Z,6.65
2023-03-26T00:19:38.367Z,6.68
2023-03-26T00:22:23.379Z,6.80
2023-03-26T00:25:08.281Z,6.73
2023-03-26T00:27:53.294Z,6.69
2023-03-26T00:30:38.112Z,6.66
2023-03-26T00:33:23.120Z,6.66
2023-03-26T00:36:07.988Z,6.56
2023-03-26T00:38:53.010Z,6.52
2023-03-26T00:41:38.027Z,6.37
2023-03-26T00:44:22.953Z,6.19
2023-03-26T00:47:07.911Z,6.20
2023-03-26T00:49:52.839Z,5.76
2023-03-26T00:52:37.853Z,6.19
2023-03-26T00:55:22.700Z,6.35
2023-03-26T00:58:07.733Z,6.38
2023-03-26T01:00:52.601Z,6.43
2023-03-26T01:03:37.590Z,6.48
2023-03-26T01:06:22.382Z,6.49
2023-03-26T01:09:07.304Z,6.45
2023-03-26T01:11:52.217Z,6.45
2023-03-26T01:14:36.965Z,6.49
2023-03-26T01:17:21.867Z,6.56
2023-03-26T01:20:06.775Z,6.60
2023-03-26T01:22:51.788Z,6.72
2023-03-26T01:25:36.698Z,6.68
2023-03-26T01:28:21.646Z,6.67
2023-03-26T01:31:06.510Z,6.70
2023-03-26T01:33:51.401Z,6.77
2023-03-26T01:36:36.393Z,6.82
2023-03-26T01:39:21.263Z,6.76
2023-03-26T01:42:06.087Z,6.74
2023-03-26T01:44:51.013Z,6.74
2023-03-26T01:47:36.059Z,6.70
2023-03-26T01:50:20.793Z,6.72
2023-03-26T01:53:05.772Z,6.68
2023-03-26T01:55:50.669Z,6.70
2023-03-26T01:58:35.523Z,6.67
2023-03-26T02:01:20.559Z,6.69
2023-03-26T02:04:05.423Z,6.71
2023-03-26T02:06:50.389Z,6.74
2023-03-26T02:09:35.075Z,6.67
2023-03-26T02:12:20.093Z,6.71
2023-03-26T02:15:04.969Z,6.71
2023-03-26T02:17:49.888Z,6.63
2023-03-26T02:20:34.764Z,6.65
2023-03-26T02:23:19.561Z,6.63
2023-03-26T02:26:04.547Z,6.58
2023-03-26T02:28:49.515Z,6.63
2023-03-26T02:31:34.413Z,6.65
2023-03-26T02:34:19.312Z,6.69
2023-03-26T02:37:04.247Z,6.69
2023-03-26T02:39:51.996Z,6.67
2023-03-26T02:42:36.871Z,6.71
2023-03-26T02:45:21.692Z,6.70
2023-03-26T02:48:06.521Z,6.70
2023-03-26T02:50:51.503Z,6.78
2023-03-26T02:53:36.411Z,6.70
2023-03-26T02:56:21.260Z,6.73
2023-03-26T02:59:06.227Z,6.72
2023-03-26T03:01:51.128Z,6.79
2023-03-26T03:04:36.078Z,6.65
2023-03-26T03:07:20.857Z,6.65
2023-03-26T03:10:05.754Z,6.62
2023-03-26T03:12:50.629Z,6.66
2023-03-26T03:15:35.515Z,6.67
2023-03-26T03:18:20.383Z,6.63
2023-03-26T03:21:05.323Z,6.68
2023-03-26T03:23:50.238Z,6.66
2023-03-26T03:26:35.186Z,6.59
2023-03-26T03:29:20.032Z,6.57
2023-03-26T03:32:04.922Z,6.62
2023-03-26T03:34:49.997Z,6.66
2023-03-26T03:37:34.786Z,6.79
2023-03-26T03:40:19.672Z,6.77
2023-03-26T03:43:04.506Z,6.65
2023-03-26T03:45:49.346Z,6.67
2023-03-26T03:48:34.178Z,6.67
2023-03-26T03:51:19.090Z,6.72
2023-03-26T03:54:04.017Z,6.81
2023-03-26T03:56:48.808Z,6.77
2023-03-26T03:59:33.727Z,6.80
2023-03-26T04:02:18.607Z,6.85
2023-03-26T04:05:03.622Z,6.71
2023-03-26T04:07:48.333Z,6.61
2023-03-26T04:10:33.351Z,6.66
2023-03-26T04:13:18.195Z,6.68
2023-03-26T04:16:03.222Z,6.60
2023-03-26T04:18:47.940Z,6.62
2023-03-26T04:21:32.908Z,6.63
2023-03-26T04:24:17.951Z,6.63
2023-03-26T04:27:02.747Z,6.51
2023-03-26T04:29:47.566Z,6.61
2023-03-26T04:32:32.450Z,6.68
2023-03-26T04:35:17.438Z,6.71
2023-03-26T04:38:02.296Z,6.65
2023-03-26T04:40:47.250Z,6.55
2023-03-26T04:43:32.215Z,6.57
2023-03-26T04:46:17.157Z,6.55
2023-03-26T04:49:02.075Z,6.53
2023-03-26T04:51:46.964Z,6.57
2023-03-26T04:54:31.939Z,6.67
2023-03-26T04:57:16.703Z,6.77
2023-03-26T05:00:01.824Z,6.68
2023-03-26T05:02:46.664Z,6.64
2023-03-26T05:05:31.565Z,6.68
2023-03-26T05:08:16.563Z,6.08
2023-03-26T05:11:01.431Z,5.93
2023-03-26T05:13:46.541Z,6.23
2023-03-26T05:16:31.274Z,6.10
2023-03-26T05:19:16.064Z,6.17
2023-03-26T05:22:00.888Z,6.03
2023-03-26T05:24:45.693Z,6.00
2023-03-26T05:27:30.422Z,5.94
2023-03-26T05:30:15.483Z,6.12
2023-03-26T05:33:00.338Z,6.27
2023-03-26T05:35:45.194Z,6.37
2023-03-26T05:38:30.125Z,6.36
2023-03-26T05:41:14.892Z,6.43
2023-03-26T05:43:59.874Z,6.53
2023-03-26T05:46:44.668Z,6.51
2023-03-26T05:49:29.678Z,6.51
2023-03-26T05:52:14.680Z,6.56
2023-03-26T05:54:59.625Z,6.64
2023-03-26T05:57:44.461Z,6.66
2023-03-26T06:00:29.381Z,6.73
2023-03-26T06:03:14.543Z,6.70
2023-03-26T06:05:59.661Z,6.69
2023-03-26T06:08:44.659Z,6.74
2023-03-26T06:11:29.441Z,6.66
2023-03-26T06:14:14.453Z,6.60
2023-03-26T06:16:59.286Z,6.68
2023-03-26T06:19:44.212Z,6.65
2023-03-26T06:22:29.278Z,6.59
2023-03-26T06:25:14.130Z,6.60
2023-03-26T06:27:59.142Z,6.62
2023-03-26T06:30:44.093Z,6.56
2023-03-26T06:33:29.003Z,6.51
2023-03-26T06:36:14.027Z,6.48
2023-03-26T06:38:59.038Z,6.31
2023-03-26T06:41:43.834Z,6.27
2023-03-26T06:44:28.712Z,6.29
2023-03-26T06:47:13.625Z,6.37
2023-03-26T06:49:58.586Z,6.32
2023-03-26T06:52:43.424Z,6.35
2023-03-26T06:55:28.144Z,6.24
2023-03-26T06:58:13.156Z,5.85
2023-03-26T07:00:58.193Z,5.89
2023-03-26T07:03:42.958Z,5.87
2023-03-26T07:06:27.743Z,5.21
2023-03-26T07:09:12.509Z,4.80
2023-03-26T07:11:57.552Z,4.66
2023-03-26T07:14:42.444Z,4.89
2023-03-26T07:17:27.391Z,5.13
2023-03-26T07:20:12.202Z,5.17
2023-03-26T07:22:57.126Z,5.28
2023-03-26T07:25:41.935Z,5.05
2023-03-26T07:28:26.825Z,5.39
2023-03-26T07:31:11.647Z,5.14
2023-03-26T07:33:56.605Z,5.11
2023-03-26T07:36:41.429Z,5.48
2023-03-26T07:39:28.032Z,5.62
2023-03-26T07:42:13.064Z,5.74
2023-03-26T07:44:57.928Z,5.76
2023-03-26T07:47:43.083Z,5.74
2023-03-26T07:50:27.962Z,5.78
2023-03-26T07:53:12.710Z,5.67
2023-03-26T07:55:57.472Z,5.75
2023-03-26T07:58:42.481Z,5.81
2023-03-26T08:01:27.309Z,5.86
2023-03-26T08:04:24.192Z,5.89
2023-03-26T08:07:11.014Z,5.88
2023-03-26T08:09:55.757Z,5.82
2023-03-26T08:12:40.832Z,5.83
2023-03-26T08:15:25.716Z,5.88
2023-03-26T08:18:10.619Z,5.94
2023-03-26T08:20:55.636Z,5.99
2023-03-26T08:23:50.742Z,6.06
2023-03-26T08:26:35.839Z,6.10
2023-03-26T08:29:20.912Z,5.95
2023-03-26T08:32:05.735Z,5.88
2023-03-26T08:34:51.247Z,5.88
2023-03-26T08:37:36.022Z,5.84
2023-03-26T08:40:21.080Z,5.70
2023-03-26T08:43:06.070Z,5.68
2023-03-26T08:45:50.944Z,5.69
2023-03-26T08:48:35.731Z,5.74
2023-03-26T08:51:20.686Z,5.73
2023-03-26T08:54:05.601Z,5.82
2023-03-26T08:56:50.501Z,5.71
2023-03-26T08:59:35.366Z,5.76
2023-03-26T09:02:20.284Z,5.69
2023-03-26T09:05:05.344Z,5.48
2023-03-26T09:07:50.137Z,5.56
2023-03-26T09:10:34.936Z,5.55
2023-03-26T09:13:19.913Z,5.57
2023-03-26T09:16:04.961Z,5.57
2023-03-26T09:18:49.847Z,5.52
2023-03-26T09:21:34.785Z,5.28
2023-03-26T09:24:19.721Z,5.29
2023-03-26T09:27:04.635Z,5.49
2023-03-26T09:29:49.614Z,5.48
2023-03-26T09:32:34.586Z,4.91
2023-03-26T09:35:19.401Z,5.04
2023-03-26T09:38:04.356Z,5.06
2023-03-26T09:43:34.117Z,4.70
2023-03-26T09:46:20.435Z,4.97
2023-03-26T09:49:05.565Z,5.14
2023-03-26T09:51:50.529Z,5.27
2023-03-26T09:54:37.095Z,5.23
2023-03-26T09:57:22.062Z,5.32
2023-03-26T10:00:06.986Z,5.48
2023-03-26T10:02:52.008Z,5.57
2023-03-26T10:05:36.863Z,5.65
2023-03-26T10:08:21.863Z,5.56
2023-03-26T10:11:07.989Z,5.39
2023-03-26T10:13:52.878Z,5.29
2023-03-26T10:16:37.759Z,5.47
2023-03-26T10:19:23.339Z,5.42
2023-03-26T10:22:08.045Z,5.51
2023-03-26T10:24:52.750Z,5.40
2023-03-26T10:27:37.649Z,5.38
2023-03-26T10:30:22.578Z,5.49
2023-03-26T10:33:07.519Z,5.50
2023-03-26T10:35:52.533Z,5.18
2023-03-26T10:38:37.261Z,5.62
2023-03-26T10:41:22.093Z,5.62
2023-03-26T10:44:08.870Z,5.73
2023-03-26T10:46:53.792Z,5.66
2023-03-26T10:49:38.692Z,5.07
2023-03-26T10:52:23.565Z,5.47
2023-03-26T10:55:08.555Z,5.25
2023-03-26T10:57:53.334Z,5.62
2023-03-26T11:00:42.127Z,5.60
2023-03-26T11:03:27.123Z,5.27
2023-03-26T11:06:12.124Z,5.00
2023-03-26T11:08:57.090Z,5.34
2023-03-26T11:11:41.961Z,5.30
2023-03-26T11:14:34.397Z,5.75
2023-03-26T11:17:39.572Z,5.81
2023-03-26T11:20:25.272Z,5.80
2023-03-26T11:23:10.238Z,6.06
2023-03-26T11:25:55.246Z,5.74
2023-03-26T11:28:40.327Z,5.34
2023-03-26T11:31:24.960Z,5.89
2023-03-26T11:34:09.779Z,6.18
2023-03-26T11:36:55.314Z,6.06
2023-03-26T11:39:40.263Z,6.35
2023-03-26T11:42:25.150Z,6.28
2023-03-26T11:45:10.395Z,6.43
2023-03-26T11:47:55.220Z,6.63
2023-03-26T11:50:40.103Z,6.71
2023-03-26T11:53:25.047Z,6.83
2023-03-26T11:56:10.209Z,6.73
2023-03-26T11:59:02.478Z,6.78
2023-03-26T12:01:47.308Z,7.04
2023-03-26T12:04:32.226Z,7.11
2023-03-26T12:07:16.933Z,7.04
2023-03-26T12:10:18.072Z,6.91
2023-03-26T12:13:03.787Z,6.99
2023-03-26T12:15:48.569Z,7.14
2023-03-26T12:18:33.503Z,7.03
2023-03-26T12:21:18.393Z,7.30
2023-03-26T12:24:03.376Z,7.43
2023-03-26T12:26:48.390Z,7.57
2023-03-26T12:29:33.315Z,7.69
2023-03-26T12:32:18.397Z,7.69
2023-03-26T12:35:03.297Z,7.74
2023-03-26T12:37:48.332Z,7.71
2023-03-26T12:40:33.246Z,7.82
2023-03-26T12:44:47.213Z,7.17
2023-03-26T12:47:54.605Z,7.23
2023-03-26T12:49:27.991Z,7.59
2023-03-26T12:52:12.778Z,7.62
2023-03-26T12:54:57.701Z,7.85
2023-03-26T12:57:42.408Z,7.97
2023-03-26T13:00:27.404Z,8.05
2023-03-26T13:03:12.273Z,8.09
2023-03-26T13:05:57.199Z,7.87
2023-03-26T13:08:42.162Z,7.59
2023-03-26T13:11:27.020Z,7.91
2023-03-26T13:14:12.006Z,7.53
2023-03-26T13:16:56.908Z,7.74
2023-03-26T13:19:41.712Z,7.87
2023-03-26T13:22:26.488Z,7.95
2023-03-26T13:25:11.283Z,7.80
2023-03-26T13:27:56.139Z,7.81
2023-03-26T13:30:41.147Z,7.95
2023-03-26T13:33:25.943Z,8.23
2023-03-26T13:36:22.569Z,8.11
2023-03-26T13:39:08.259Z,8.17
2023-03-26T13:41:53.236Z,8.27
2023-03-26T13:44:38.163Z,8.28
2023-03-26T13:47:23.120Z,8.20
2023-03-26T13:50:08.186Z,8.32
2023-03-26T13:52:53.230Z,8.12
2023-03-26T13:55:38.111Z,8.15
2023-03-26T13:58:23.041Z,7.95
2023-03-26T14:01:07.994Z,7.60
2023-03-26T14:03:52.872Z,7.36
2023-03-26T14:06:37.875Z,6.98
2023-03-26T14:09:22.725Z,6.64
2023-03-26T14:12:07.561Z,6.77
2023-03-26T14:15:06.502Z,6.81
2023-03-26T14:17:52.177Z,6.94
2023-03-26T14:20:37.001Z,7.04
2023-03-26T14:23:21.771Z,6.59
2023-03-26T14:26:06.883Z,6.77
2023-03-26T14:28:51.746Z,6.41
2023-03-26T14:31:36.619Z,6.35
2023-03-26T14:34:21.524Z,6.63
2023-03-26T14:37:06.423Z,6.38
2023-03-26T14:39:51.356Z,6.34
2023-03-26T14:42:38.681Z,5.70
2023-03-26T14:45:23.586Z,5.94
2023-03-26T14:48:09.926Z,6.01
2023-03-26T14:50:55.118Z,6.17
2023-03-26T14:53:40.248Z,6.14
2023-03-26T14:56:25.013Z,5.51
2023-03-26T14:59:09.979Z,5.28
2023-03-26T15:01:54.845Z,5.67
2023-03-26T15:04:39.828Z,5.62
2023-03-26T15:07:24.776Z,5.76
2023-03-26T15:10:09.783Z,5.94
2023-03-26T15:12:54.674Z,6.08
2023-03-26T15:15:39.552Z,6.01
2023-03-26T15:18:24.497Z,5.78
2023-03-26T15:21:11.204Z,5.94
2023-03-26T15:23:56.248Z,5.95
2023-03-26T15:26:41.144Z,6.13
2023-03-26T15:29:25.979Z,6.26
2023-03-26T15:32:10.899Z,6.14
2023-03-26T15:34:55.723Z,5.75
2023-03-26T15:37:40.801Z,5.63
2023-03-26T15:40:25.675Z,5.71
2023-03-26T15:43:10.597Z,5.86
2023-03-26T15:45:55.551Z,6.06
2023-03-26T15:48:40.304Z,6.19
2023-03-26T15:51:25.110Z,6.34
2023-03-26T15:54:10.017Z,6.41
2023-03-26T15:56:55.045Z,6.47
2023-03-26T15:59:39.803Z,6.48
2023-03-26T16:02:24.857Z,6.41
2023-03-26T16:05:09.897Z,5.97
2023-03-26T16:07:55.961Z,6.04
2023-03-26T16:10:40.774Z,6.21
2023-03-26T16:13:25.815Z,6.15
2023-03-26T16:16:10.774Z,6.27
2023-03-26T16:18:55.636Z,6.31
2023-03-26T16:21:40.704Z,6.31
2023-03-26T16:24:25.589Z,6.17
2023-03-26T16:27:10.576Z,6.37
2023-03-26T16:29:55.395Z,6.44
2023-03-26T16:32:40.525Z,6.63
2023-03-26T16:35:25.295Z,6.57
2023-03-26T16:38:10.301Z,6.62
2023-03-26T16:40:56.880Z,6.54
2023-03-26T16:43:43.983Z,6.50
2023-03-26T16:46:29.019Z,6.33
2023-03-26T16:49:13.800Z,6.36
2023-03-26T16:51:58.968Z,6.49
2023-03-26T16:54:43.594Z,6.44
2023-03-26T16:57:28.489Z,6.48
2023-03-26T17:00:13.366Z,6.65
2023-03-26T17:02:58.312Z,6.68
2023-03-26T17:05:43.243Z,6.58
2023-03-26T17:08:35.477Z,6.58
2023-03-26T17:11:22.252Z,6.58
2023-03-26T17:14:07.051Z,6.55
2023-03-26T17:16:51.970Z,6.44
2023-03-26T17:19:36.872Z,6.28
2023-03-26T17:22:21.851Z,6.33
2023-03-26T17:25:06.731Z,6.24
2023-03-26T17:27:51.451Z,6.25
2023-03-26T17:30:36.574Z,6.45
2023-03-26T17:33:21.756Z,6.35
2023-03-26T17:36:06.332Z,6.14
2023-03-26T17:38:51.422Z,6.08
2023-03-26T17:41:36.336Z,6.00
2023-03-26T17:44:21.222Z,6.05
2023-03-26T17:47:06.367Z,6.06
2023-03-26T17:49:51.229Z,6.00
2023-03-26T17:52:36.107Z,5.96
2023-03-26T17:55:21.128Z,5.78
2023-03-26T17:58:06.067Z,5.71
2023-03-26T18:00:50.959Z,5.70
2023-03-26T18:03:36.004Z,5.63
2023-03-26T18:06:20.873Z,5.59
2023-03-26T18:09:06.566Z,5.64
2023-03-26T18:11:52.274Z,5.57
2023-03-26T18:14:37.069Z,5.59
2023-03-26T18:17:21.951Z,5.54
2023-03-26T18:20:06.749Z,5.65
2023-03-26T18:22:51.653Z,5.57
2023-03-26T18:25:36.482Z,5.54
2023-03-26T18:28:21.546Z,5.59
2023-03-26T18:31:06.489Z,5.61
2023-03-26T18:33:51.412Z,5.63
2023-03-26T18:36:36.382Z,5.65
2023-03-26T18:39:21.175Z,5.59
2023-03-26T18:42:06.271Z,5.62
2023-03-26T18:44:51.227Z,5.73
2023-03-26T18:47:36.187Z,5.67
2023-03-26T18:50:21.097Z,5.71
2023-03-26T18:53:05.896Z,5.49
2023-03-26T18:55:50.772Z,5.44
2023-03-26T18:58:35.674Z,5.39
2023-03-26T19:01:25.488Z,5.33
2023-03-26T19:04:11.124Z,5.34
2023-03-26T19:06:55.716Z,5.28
2023-03-26T19:09:40.879Z,5.32
2023-03-26T19:12:25.572Z,5.33
2023-03-26T19:15:10.298Z,5.30
2023-03-26T19:17:55.149Z,5.35
2023-03-26T19:20:40.086Z,5.37
2023-03-26T19:23:25.182Z,5.36
2023-03-26T19:26:09.995Z,5.36
2023-03-26T19:28:54.845Z,5.57
2023-03-26T19:31:39.938Z,5.49
2023-03-26T19:34:25.296Z,5.37
2023-03-26T19:37:10.175Z,5.30
2023-03-26T19:39:55.146Z,5.10
2023-03-26T19:42:42.889Z,5.09
2023-03-26T19:45:29.249Z,5.08
2023-03-26T19:48:16.041Z,5.10
2023-03-26T19:51:03.182Z,5.12
2023-03-26T19:53:47.998Z,5.08
2023-03-26T19:56:32.984Z,5.07
2023-03-26T19:59:17.873Z,5.17
2023-03-26T20:02:02.728Z,5.26
2023-03-26T20:04:47.765Z,5.15
2023-03-26T20:07:35.835Z,5.05
2023-03-26T20:10:21.038Z,5.01
2023-03-26T20:13:06.079Z,4.98
2023-03-26T20:15:51.034Z,5.00
2023-03-26T20:18:50.974Z,5.07
2023-03-26T20:21:35.958Z,5.06
2023-03-26T20:24:20.990Z,5.09
2023-03-26T20:27:06.092Z,5.17
2023-03-26T20:29:51.299Z,5.07
2023-03-26T20:32:36.092Z,5.07
2023-03-26T20:35:21.022Z,5.11
2023-03-26T20:38:26.534Z,5.10
2023-03-26T20:41:17.989Z,5.10
2023-03-26T20:44:02.794Z,5.18
2023-03-26T20:46:47.723Z,5.26
2023-03-26T20:49:32.528Z,5.17
2023-03-26T20:52:17.386Z,5.13
2023-03-26T20:55:02.132Z,5.13
2023-03-26T20:57:47.271Z,5.13
2023-03-26T21:00:32.166Z,5.19
2023-03-26T21:03:17.195Z,5.22
2023-03-26T21:06:01.836Z,5.24
2023-03-26T21:08:46.696Z,5.23
2023-03-26T21:11:31.615Z,5.27
2023-03-26T21:14:16.339Z,5.31
2023-03-26T21:17:01.504Z,5.28
2023-03-26T21:19:46.180Z,5.31
2023-03-26T21:22:31.098Z,5.30
2023-03-26T21:25:16.145Z,5.29
2023-03-26T21:28:01.004Z,5.27
2023-03-26T21:30:45.818Z,5.27
2023-03-26T21:33:30.795Z,5.31
2023-03-26T21:36:15.896Z,5.35
2023-03-26T21:39:00.538Z,5.27
2023-03-26T21:41:45.489Z,5.23
2023-03-26T21:44:30.326Z,5.25
2023-03-26T21:47:15.196Z,5.23
2023-03-26T21:50:00.106Z,5.24
2023-03-26T21:52:44.968Z,5.26
2023-03-26T21:55:29.871Z,5.21
2023-03-26T21:58:14.741Z,5.17
2023-03-26T22:00:59.702Z,5.10
2023-03-26T22:03:44.381Z,5.06
2023-03-26T22:06:29.254Z,5.01
2023-03-26T22:09:16.586Z,5.02
2023-03-26T22:12:03.457Z,4.97
2023-03-26T22:14:48.360Z,4.97
2023-03-26T22:17:33.261Z,5.01
2023-03-26T22:20:18.069Z,5.00
2023-03-26T22:23:02.905Z,5.04
2023-03-26T22:25:47.701Z,4.99
2023-03-26T22:28:32.483Z,5.05
2023-03-26T22:31:17.359Z,5.05
2023-03-26T22:34:02.270Z,4.98
2023-03-26T22:36:47.087Z,4.74
2023-03-26T22:39:32.005Z,4.66
2023-03-26T22:42:16.756Z,4.76
2023-03-26T22:45:01.656Z,4.90
2023-03-26T22:47:46.516Z,4.90
2023-03-26T22:50:31.436Z,4.92
2023-03-26T22:53:16.213Z,4.93
2023-03-26T22:56:01.182Z,4.97
2023-03-26T22:58:46.022Z,5.00
2023-03-26T23:01:30.912Z,5.00
2023-03-26T23:04:31.689Z,4.99
2023-03-26T23:07:17.230Z,5.06
2023-03-26T23:10:02.083Z,5.07
2023-03-26T23:12:46.747Z,5.03
2023-03-26T23:15:31.736Z,5.01
2023-03-26T23:18:16.558Z,5.03
2023-03-26T23:21:01.467Z,5.03
2023-03-26T23:23:46.256Z,4.92
2023-03-26T23:26:37.747Z,5.04
2023-03-26T23:29:29.329Z,5.02
2023-03-26T23:32:23.429Z,5.00
2023-03-26T23:35:09.157Z,5.06
2023-03-26T23:37:54.009Z,4.97
2023-03-26T23:40:38.910Z,4.98
2023-03-26T23:43:23.681Z,4.94
2023-03-26T23:46:08.554Z,4.78
2023-03-26T23:48:53.489Z,4.77
2023-03-26T23:51:38.372Z,4.75
2023-03-26T23:54:23.201Z,4.80
2023-03-26T23:57:08.243Z,4.78
2023-03-26T23:59:52.935Z,4.76
